createdAt,value
2019-04-30T00:00:47.200Z,43.03
2019-04-30T00:03:29.537Z,42.95
2019-04-30T00:06:12.569Z,43.12
2019-04-30T00:08:45.140Z,42.98
2019-04-30T00:11:19.499Z,42.73
2019-04-30T00:13:55.407Z,42.94
2019-04-30T00:16:25.292Z,42.85
2019-04-30T00:19:00.463Z,42.96
2019-04-30T00:21:31.276Z,42.85
2019-04-30T00:24:06.244Z,42.63
2019-04-30T00:26:39.816Z,42.35
2019-04-30T00:29:09.780Z,42.49
2019-04-30T00:31:41.616Z,42.23
2019-04-30T00:34:21.853Z,42.84
2019-04-30T00:36:53.234Z,42.77
2019-04-30T00:39:27.363Z,42.61
2019-04-30T00:42:00.876Z,42.60
2019-04-30T00:44:35.658Z,42.67
2019-04-30T00:47:08.443Z,42.42
2019-04-30T00:49:40.824Z,42.02
2019-04-30T00:52:11.331Z,41.96
2019-04-30T00:54:42.461Z,41.86
2019-04-30T00:57:15.284Z,42.04
2019-04-30T00:59:48.052Z,42.09
2019-04-30T01:02:31.675Z,42.09
2019-04-30T01:05:05.455Z,42.24
2019-04-30T01:07:33.052Z,42.57
2019-04-30T01:10:06.911Z,42.88
2019-04-30T01:12:46.520Z,42.93
2019-04-30T01:15:15.740Z,43.04
2019-04-30T01:17:51.094Z,42.81
2019-04-30T01:20:24.191Z,42.79
2019-04-30T01:22:58.571Z,43.17
2019-04-30T01:25:30.262Z,43.31
2019-04-30T01:28:01.778Z,43.10
2019-04-30T01:30:32.282Z,43.33
2019-04-30T01:33:03.914Z,43.14
2019-04-30T01:35:35.293Z,43.20
2019-04-30T01:38:11.178Z,43.47
2019-04-30T01:40:42.852Z,43.60
2019-04-30T01:43:23.530Z,43.04
2019-04-30T01:45:53.072Z,43.74
2019-04-30T01:48:26.801Z,43.64
2019-04-30T01:51:01.159Z,43.92
2019-04-30T01:53:30.895Z,43.50
2019-04-30T01:56:24.575Z,43.59
2019-04-30T01:58:59.544Z,43.96
2019-04-30T02:01:31.532Z,43.98
2019-04-30T02:04:03.347Z,43.88
2019-04-30T02:06:34.385Z,44.01
2019-04-30T02:09:06.441Z,44.30
2019-04-30T02:11:38.821Z,44.43
2019-04-30T02:14:11.887Z,44.50
2019-04-30T02:16:43.319Z,44.65
2019-04-30T02:19:14.277Z,44.78
2019-04-30T02:21:48.235Z,44.60
2019-04-30T02:24:21.008Z,44.85
2019-04-30T02:26:53.917Z,44.74
2019-04-30T02:29:26.197Z,44.88
2019-04-30T02:32:00.994Z,44.84
2019-04-30T02:34:42.205Z,44.87
2019-04-30T02:37:25.661Z,44.87
2019-04-30T02:40:00.931Z,45.10
2019-04-30T02:42:39.705Z,45.33
2019-04-30T02:45:13.412Z,45.76
2019-04-30T02:47:49.896Z,45.93
2019-04-30T02:50:22.520Z,45.89
2019-04-30T02:52:55.533Z,46.03
2019-04-30T02:55:45.603Z,46.15
2019-04-30T02:58:21.022Z,46.34
2019-04-30T03:00:53.593Z,46.10
2019-04-30T03:03:29.954Z,46.33
2019-04-30T03:06:03.454Z,46.60
2019-04-30T03:08:34.997Z,46.80
2019-04-30T03:11:06.504Z,46.86
2019-04-30T03:13:42.879Z,47.13
2019-04-30T03:16:15.852Z,47.16
2019-04-30T03:19:21.532Z,47.33
2019-04-30T03:22:00.194Z,47.33
2019-04-30T03:24:31.675Z,47.40
2019-04-30T03:27:05.003Z,47.65
2019-04-30T03:29:40.167Z,47.59
2019-04-30T03:32:13.738Z,47.73
2019-04-30T03:34:45.997Z,47.96
2019-04-30T03:37:19.889Z,47.95
2019-04-30T03:39:52.138Z,48.24
2019-04-30T03:42:24.512Z,48.08
2019-04-30T03:44:56.345Z,48.04
2019-04-30T03:47:29.939Z,48.10
2019-04-30T03:50:00.434Z,48.28
2019-04-30T03:52:31.503Z,48.30
2019-04-30T03:55:03.396Z,48.56
2019-04-30T03:57:34.634Z,48.72
2019-04-30T04:00:09.318Z,48.35
2019-04-30T04:02:46.896Z,48.53
2019-04-30T04:05:36.764Z,48.45
2019-04-30T04:08:23.246Z,48.28
2019-04-30T04:11:00.539Z,48.08
2019-04-30T04:13:33.156Z,47.93
2019-04-30T04:16:05.872Z,48.37
2019-04-30T04:18:36.916Z,47.95
2019-04-30T04:21:16.299Z,47.93
2019-04-30T04:23:43.303Z,48.03
2019-04-30T04:26:20.074Z,47.88
2019-04-30T04:28:52.647Z,48.13
2019-04-30T04:31:24.736Z,48.30
2019-04-30T04:34:03.066Z,48.28
2019-04-30T04:36:39.957Z,48.01
2019-04-30T04:39:23.815Z,47.72
2019-04-30T04:41:59.927Z,48.44
2019-04-30T04:44:34.832Z,48.25
2019-04-30T04:47:06.534Z,48.00
2019-04-30T04:49:39.770Z,47.96
2019-04-30T04:52:14.912Z,48.07
2019-04-30T04:54:46.251Z,47.97
2019-04-30T04:57:19.319Z,47.87
2019-04-30T04:59:53.842Z,47.78
2019-04-30T05:02:32.870Z,47.71
2019-04-30T05:05:04.819Z,47.46
2019-04-30T05:07:39.653Z,47.45
2019-04-30T05:10:14.148Z,47.91
2019-04-30T05:12:45.632Z,47.42
2019-04-30T05:15:17.163Z,47.85
2019-04-30T05:17:49.748Z,47.81
2019-04-30T05:20:21.174Z,47.53
2019-04-30T05:22:53.436Z,47.27
2019-04-30T05:25:24.898Z,47.05
2019-04-30T05:28:01.712Z,46.78
2019-04-30T05:30:33.099Z,46.90
2019-04-30T05:33:06.632Z,46.43
2019-04-30T05:35:56.078Z,46.61
2019-04-30T05:38:32.437Z,46.68
2019-04-30T05:41:06.587Z,46.41
2019-04-30T05:43:42.282Z,46.69
2019-04-30T05:46:29.980Z,46.47
2019-04-30T05:49:14.455Z,46.13
2019-04-30T05:51:53.587Z,45.85
2019-04-30T05:54:21.872Z,45.71
2019-04-30T05:56:57.056Z,45.65
2019-04-30T05:59:29.473Z,45.54
2019-04-30T06:02:02.390Z,45.10
2019-04-30T06:07:12.232Z,45.24
2019-04-30T06:09:52.927Z,45.02
2019-04-30T06:13:03.117Z,44.38
2019-04-30T06:15:49.110Z,44.83
2019-04-30T06:18:22.254Z,45.01
2019-04-30T06:20:55.131Z,44.73
2019-04-30T06:23:26.771Z,44.53
2019-04-30T06:26:06.827Z,44.73
2019-04-30T06:28:32.654Z,44.25
2019-04-30T06:31:04.666Z,44.50
2019-04-30T06:33:38.859Z,44.25
2019-04-30T06:36:11.701Z,44.57
2019-04-30T06:38:42.760Z,44.25
2019-04-30T06:41:13.392Z,44.22
2019-04-30T06:43:48.797Z,43.82
2019-04-30T06:46:20.549Z,43.49
2019-04-30T06:48:51.690Z,43.48
2019-04-30T06:51:23.441Z,44.06
2019-04-30T06:53:56.410Z,44.01
2019-04-30T06:56:28.929Z,43.54
2019-04-30T06:59:02.191Z,43.40
2019-04-30T07:01:33.732Z,43.38
2019-04-30T07:04:06.604Z,43.38
2019-04-30T07:06:45.096Z,43.45
2019-04-30T07:09:58.060Z,43.48
2019-04-30T07:12:31.480Z,43.46
2019-04-30T07:15:04.107Z,42.90
2019-04-30T07:17:59.115Z,43.01
2019-04-30T07:20:34.013Z,43.06
2019-04-30T07:23:05.971Z,43.30
2019-04-30T07:25:51.724Z,42.68
2019-04-30T07:28:42.720Z,42.40
2019-04-30T07:31:13.336Z,41.65
2019-04-30T07:33:39.672Z,41.67
2019-04-30T07:36:11.326Z,41.70
2019-04-30T07:38:54.194Z,41.57
2019-04-30T07:41:23.371Z,41.26
2019-04-30T07:43:55.027Z,40.86
2019-04-30T07:46:35.098Z,39.73
2019-04-30T07:49:04.892Z,40.05
2019-04-30T07:51:41.369Z,38.71
2019-04-30T07:54:12.326Z,37.67
2019-04-30T07:56:50.662Z,36.55
2019-04-30T07:59:22.674Z,36.78
2019-04-30T08:02:06.308Z,36.95
2019-04-30T08:04:51.434Z,36.39
2019-04-30T08:07:21.812Z,36.05
2019-04-30T08:09:55.811Z,36.19
2019-04-30T08:12:31.827Z,35.51
2019-04-30T08:14:59.648Z,35.44
2019-04-30T08:17:35.979Z,36.00
2019-04-30T08:20:12.562Z,36.16
2019-04-30T08:22:50.381Z,36.22
2019-04-30T08:25:25.771Z,36.29
2019-04-30T08:28:03.003Z,35.92
2019-04-30T08:30:39.146Z,35.78
2019-04-30T08:33:19.224Z,35.96
2019-04-30T08:35:53.371Z,35.76
2019-04-30T08:38:30.359Z,35.83
2019-04-30T08:41:06.434Z,36.21
2019-04-30T08:43:45.749Z,35.64
2019-04-30T08:46:20.289Z,34.64
2019-04-30T08:48:54.497Z,34.47
2019-04-30T08:51:30.345Z,33.92
2019-04-30T08:54:01.569Z,33.62
2019-04-30T08:56:34.400Z,34.72
2019-04-30T08:59:08.729Z,34.08
2019-04-30T09:01:55.788Z,33.75
2019-04-30T09:04:30.204Z,33.11
2019-04-30T09:07:01.922Z,33.52
2019-04-30T09:09:35.297Z,34.01
2019-04-30T09:12:11.346Z,33.99
2019-04-30T09:14:49.408Z,33.35
2019-04-30T09:17:25.081Z,33.35
2019-04-30T09:20:15.086Z,33.16
2019-04-30T09:22:47.304Z,33.46
2019-04-30T09:25:19.487Z,32.66
2019-04-30T09:28:01.155Z,33.20
2019-04-30T09:30:34.347Z,33.70
2019-04-30T09:33:07.098Z,34.19
2019-04-30T09:35:46.492Z,33.11
2019-04-30T09:38:19.508Z,33.71
2019-04-30T09:40:54.922Z,33.71
2019-04-30T09:43:29.188Z,32.66
2019-04-30T09:46:15.238Z,33.32
2019-04-30T09:48:41.179Z,32.34
2019-04-30T09:51:12.817Z,32.63
2019-04-30T09:53:59.202Z,32.07
2019-04-30T09:56:29.453Z,31.87
2019-04-30T09:59:02.473Z,31.25
2019-04-30T10:01:35.455Z,32.64
2019-04-30T10:04:10.205Z,32.82
2019-04-30T10:06:46.083Z,32.29
2019-04-30T10:09:20.429Z,31.64
2019-04-30T10:12:14.119Z,31.59
2019-04-30T10:14:51.128Z,30.75
2019-04-30T10:17:30.971Z,30.95
2019-04-30T10:20:04.762Z,31.23
2019-04-30T10:22:39.936Z,30.70
2019-04-30T10:25:10.409Z,30.70
2019-04-30T10:27:42.345Z,29.30
2019-04-30T10:30:16.927Z,29.15
2019-04-30T10:32:50.080Z,29.83
2019-04-30T10:35:23.048Z,28.78
2019-04-30T10:37:55.021Z,29.07
2019-04-30T10:40:28.721Z,28.55
2019-04-30T10:43:03.563Z,29.37
2019-04-30T10:45:38.658Z,28.08
2019-04-30T10:48:09.678Z,27.91
2019-04-30T10:50:43.937Z,28.37
2019-04-30T10:53:14.887Z,29.00
2019-04-30T10:55:50.267Z,29.00
2019-04-30T10:58:23.372Z,27.47
2019-04-30T11:01:01.934Z,27.80
2019-04-30T11:03:33.608Z,28.15
2019-04-30T11:06:08.679Z,27.54
2019-04-30T11:08:39.485Z,27.40
2019-04-30T11:11:11.711Z,27.61
2019-04-30T11:13:44.597Z,27.35
2019-04-30T11:16:18.764Z,26.43
2019-04-30T11:18:49.563Z,26.74
2019-04-30T11:21:20.565Z,26.61
2019-04-30T11:23:52.390Z,26.62
2019-04-30T11:26:25.583Z,26.48
2019-04-30T11:29:02.227Z,26.47
2019-04-30T11:31:46.294Z,25.62
2019-04-30T11:34:19.364Z,26.00
2019-04-30T11:36:50.565Z,25.67
2019-04-30T11:39:32.061Z,24.09
2019-04-30T11:42:17.613Z,25.43
2019-04-30T11:44:50.140Z,25.77
2019-04-30T11:47:34.685Z,25.05
2019-04-30T11:50:19.170Z,23.81
2019-04-30T11:53:07.043Z,24.53
2019-04-30T11:55:32.400Z,25.25
2019-04-30T11:58:07.145Z,24.89
2019-04-30T12:00:51.648Z,23.60
2019-04-30T12:03:32.013Z,22.80
2019-04-30T12:06:28.544Z,23.62
2019-04-30T12:09:22.113Z,23.50
2019-04-30T12:11:53.031Z,23.63
2019-04-30T12:14:29.793Z,22.00
2019-04-30T12:17:08.873Z,23.09
2019-04-30T12:19:42.115Z,23.65
2019-04-30T12:22:13.579Z,22.57
2019-04-30T12:24:46.392Z,22.20
2019-04-30T12:27:18.709Z,20.78
2019-04-30T12:29:49.553Z,21.16
2019-04-30T12:32:21.493Z,21.21
2019-04-30T12:34:53.149Z,20.72
2019-04-30T12:37:23.321Z,21.39
2019-04-30T12:39:56.017Z,21.51
2019-04-30T12:42:28.716Z,20.28
2019-04-30T12:45:00.111Z,20.69
2019-04-30T12:47:34.429Z,20.56
2019-04-30T12:50:21.466Z,19.66
2019-04-30T12:53:10.282Z,19.95
2019-04-30T12:55:51.677Z,19.58
2019-04-30T12:58:25.459Z,19.93
2019-04-30T13:00:59.143Z,20.34
2019-04-30T13:03:31.493Z,20.28
2019-04-30T13:06:03.708Z,19.77
2019-04-30T13:08:37.920Z,19.99
2019-04-30T13:11:12.770Z,20.03
2019-04-30T13:13:44.352Z,19.78
2019-04-30T13:16:19.298Z,19.73
2019-04-30T13:18:51.904Z,19.35
2019-04-30T13:21:23.643Z,19.63
2019-04-30T13:23:57.868Z,19.14
2019-04-30T13:26:30.132Z,18.70
2019-04-30T13:29:05.961Z,18.62
2019-04-30T13:31:37.859Z,18.43
2019-04-30T13:34:29.915Z,18.66
2019-04-30T13:37:01.837Z,20.59
2019-04-30T13:39:49.495Z,19.24
2019-04-30T13:42:21.023Z,19.81
2019-04-30T13:44:51.694Z,18.47
2019-04-30T13:47:24.793Z,18.27
2019-04-30T13:49:56.197Z,17.41
2019-04-30T13:52:28.854Z,16.79
2019-04-30T13:55:10.975Z,16.03
2019-04-30T13:57:41.614Z,17.20
2019-04-30T14:00:20.905Z,15.52
2019-04-30T14:03:00.865Z,15.75
2019-04-30T14:10:44.615Z,14.67
2019-04-30T14:13:21.719Z,14.75
2019-04-30T14:16:38.471Z,15.04
2019-04-30T14:20:42.527Z,13.65
2019-04-30T14:32:33.667Z,14.80
2019-04-30T14:56:46.975Z,12.76
2019-04-30T14:59:42.631Z,14.04
2019-04-30T15:02:37.389Z,14.20
2019-04-30T15:05:14.326Z,15.31
2019-04-30T15:08:22.267Z,16.37
2019-04-30T15:15:45.799Z,16.71
2019-04-30T15:19:32.726Z,16.05
2019-04-30T15:30:04.624Z,15.69
2019-04-30T15:33:31.182Z,17.44
2019-04-30T17:15:41.988Z,29.95
2019-04-30T17:47:46.734Z,32.74
2019-04-30T17:51:05.644Z,33.12
2019-04-30T17:54:02.759Z,33.40
2019-04-30T17:56:33.769Z,33.83
2019-04-30T17:59:06.319Z,33.89
2019-04-30T18:01:40.129Z,34.32
2019-04-30T18:04:13.077Z,34.28
2019-04-30T18:06:46.043Z,34.47
2019-04-30T18:09:22.696Z,34.78
2019-04-30T18:12:02.544Z,34.76
2019-04-30T18:14:39.586Z,35.19
2019-04-30T18:17:15.406Z,35.13
2019-04-30T18:20:19.277Z,35.50
2019-04-30T18:23:26.488Z,35.42
2019-04-30T18:26:01.429Z,35.55
2019-04-30T18:28:32.007Z,36.23
2019-04-30T18:31:03.887Z,36.34
2019-04-30T18:33:34.352Z,35.82
2019-04-30T18:36:06.385Z,35.82
2019-04-30T18:38:39.117Z,36.14
2019-04-30T18:41:11.053Z,36.09
2019-04-30T18:43:41.233Z,36.79
2019-04-30T18:46:11.508Z,36.96
2019-04-30T18:48:42.243Z,37.13
2019-04-30T18:51:30.312Z,36.86
2019-04-30T18:53:50.881Z,37.16
2019-04-30T18:56:22.168Z,36.98
2019-04-30T18:58:52.961Z,37.51
2019-04-30T19:01:26.115Z,37.41
2019-04-30T19:04:01.193Z,37.36
2019-04-30T19:06:32.898Z,37.74
2019-04-30T19:09:29.787Z,38.24
2019-04-30T19:12:29.180Z,37.73
2019-04-30T19:15:19.597Z,37.94
2019-04-30T19:18:09.333Z,37.96
2019-04-30T19:20:46.306Z,38.03
2019-04-30T19:23:19.063Z,38.12
2019-04-30T19:25:50.627Z,38.21
2019-04-30T19:28:24.453Z,38.34
2019-04-30T19:30:58.904Z,38.48
2019-04-30T19:33:31.191Z,38.55
2019-04-30T19:36:03.745Z,38.48
2019-04-30T19:38:36.676Z,38.52
2019-04-30T19:41:11.327Z,38.64
2019-04-30T19:43:43.566Z,38.89
2019-04-30T19:46:14.175Z,38.71
2019-04-30T19:48:44.639Z,39.03
2019-04-30T19:51:16.186Z,38.57
2019-04-30T19:53:48.966Z,38.83
2019-04-30T19:56:21.059Z,38.84
2019-04-30T19:59:01.966Z,39.01
2019-04-30T20:01:25.992Z,38.99
2019-04-30T20:04:04.726Z,39.14
2019-04-30T20:06:38.681Z,39.23
2019-04-30T20:09:09.690Z,39.23
2019-04-30T20:11:42.773Z,39.44
2019-04-30T20:14:15.127Z,39.60
2019-04-30T20:16:49.040Z,39.66
2019-04-30T20:19:21.600Z,40.16
2019-04-30T20:21:54.192Z,40.04
2019-04-30T20:24:26.842Z,39.92
2019-04-30T20:27:07.173Z,40.42
2019-04-30T20:29:32.457Z,40.26
2019-04-30T20:32:05.576Z,40.31
2019-04-30T20:34:39.280Z,40.15
2019-04-30T20:37:12.457Z,40.26
2019-04-30T20:39:53.207Z,40.60
2019-04-30T20:42:23.909Z,40.67
2019-04-30T20:44:55.812Z,40.57
2019-04-30T20:47:30.008Z,40.79
2019-04-30T20:50:03.463Z,40.70
2019-04-30T20:52:39.404Z,41.12
2019-04-30T20:55:17.025Z,41.10
2019-04-30T20:57:50.600Z,41.09
2019-04-30T21:00:22.855Z,41.04
2019-04-30T21:02:59.743Z,41.26
2019-04-30T21:05:30.734Z,41.10
2019-04-30T21:08:01.892Z,41.07
2019-04-30T21:10:35.185Z,41.33
2019-04-30T21:13:10.996Z,41.63
2019-04-30T21:15:54.840Z,41.91
2019-04-30T21:18:25.784Z,41.73
2019-04-30T21:20:59.571Z,41.91
2019-04-30T21:23:33.240Z,41.90
2019-04-30T21:26:06.192Z,42.01
2019-04-30T21:28:39.338Z,41.97
2019-04-30T21:31:37.834Z,42.28
2019-04-30T21:34:19.588Z,42.20
2019-04-30T21:36:51.123Z,42.25
2019-04-30T21:39:24.701Z,42.43
2019-04-30T21:41:59.445Z,42.48
2019-04-30T21:44:30.120Z,42.60
2019-04-30T21:47:01.162Z,42.88
2019-04-30T21:49:33.649Z,42.74
2019-04-30T21:52:06.180Z,43.07
2019-04-30T21:54:38.825Z,43.05
2019-04-30T21:57:09.837Z,43.24
2019-04-30T21:59:41.356Z,43.02
2019-04-30T22:02:12.669Z,43.42
2019-04-30T22:04:47.396Z,43.29
2019-04-30T22:07:21.062Z,43.41
2019-04-30T22:09:54.417Z,43.59
2019-04-30T22:12:28.441Z,43.58
2019-04-30T22:15:01.274Z,43.73
2019-04-30T22:17:34.919Z,43.73
2019-04-30T22:20:09.603Z,43.76
2019-04-30T22:22:43.225Z,43.90
2019-04-30T22:25:14.803Z,44.10
2019-04-30T22:27:45.410Z,44.75
2019-04-30T22:30:17.141Z,44.41
2019-04-30T22:32:48.362Z,44.26
2019-04-30T22:35:50.362Z,44.50
2019-04-30T22:38:25.814Z,44.72
2019-04-30T22:40:58.872Z,44.93
2019-04-30T22:43:31.035Z,44.75
2019-04-30T22:46:09.774Z,44.96
2019-04-30T22:48:42.484Z,45.19
2019-04-30T22:51:15.798Z,45.18
2019-04-30T22:53:50.493Z,45.26
2019-04-30T22:56:23.949Z,45.21
2019-04-30T22:58:55.826Z,45.30
2019-04-30T23:01:52.060Z,45.24
2019-04-30T23:04:36.789Z,45.17
2019-04-30T23:07:09.384Z,45.30
2019-04-30T23:09:41.796Z,45.54
2019-04-30T23:12:17.464Z,45.55
2019-04-30T23:14:49.278Z,45.56
2019-04-30T23:17:21.144Z,45.97
2019-04-30T23:19:51.392Z,45.56
2019-04-30T23:22:23.195Z,45.64
2019-04-30T23:24:56.555Z,45.67
2019-04-30T23:27:30.601Z,45.73
2019-04-30T23:30:03.375Z,45.88
2019-04-30T23:32:34.541Z,45.68
2019-04-30T23:35:09.103Z,45.54
2019-04-30T23:37:42.407Z,45.73
2019-04-30T23:40:31.870Z,45.96
2019-04-30T23:43:03.818Z,46.42
2019-04-30T23:45:38.468Z,46.93
2019-04-30T23:48:09.183Z,46.20
2019-04-30T23:50:39.850Z,46.29
2019-04-30T23:53:14.074Z,46.09
2019-04-30T23:55:45.359Z,46.71
2019-04-30T23:58:17.607Z,46.24
